Time;durP1;ratioP1;P1;durP2;ratioP2;P2;SDS_P1;SDS_P2;PMS_P1;PMS_P2;Temp;Humidity;BMP_temperature;BMP_pressure;BME280_temperature;BME280_humidity;BME280_pressure;Samples;Min_cycle;Max_cycle;Signal;HPM_P1;HPM_P2
2021/05/01 00:01:48;;;;;;;14.77;11.63;;;8.90;99.90;;;;;;4973057;28;20034;-36
2021/05/01 00:04:14;;;;;;;18.73;12.80;;;8.80;99.90;;;;;;4968147;28;20023;-34
2021/05/01 00:06:39;;;;;;;14.55;10.90;;;8.80;99.90;;;;;;4969883;28;20070;-38
2021/05/01 00:09:08;;;;;;;17.02;11.32;;;8.80;99.90;;;;;;4967101;28;20023;-36
2021/05/01 00:11:33;;;;;;;17.27;11.00;;;8.80;99.90;;;;;;4976284;28;20447;-38
2021/05/01 00:13:59;;;;;;;15.05;11.73;;;8.80;99.90;;;;;;4967053;28;20054;-37
2021/05/01 00:16:28;;;;;;;14.77;11.98;;;8.80;99.90;;;;;;4976901;28;20019;-39
2021/05/01 00:18:54;;;;;;;15.45;12.55;;;8.80;99.90;;;;;;4966354;28;20030;-38
2021/05/01 00:21:20;;;;;;;18.08;12.75;;;8.80;99.90;;;;;;4977655;28;20027;-38
2021/05/01 00:23:45;;;;;;;18.42;14.10;;;8.80;99.90;;;;;;4965833;28;20026;-38
2021/05/01 00:26:11;;;;;;;18.75;15.00;;;8.80;99.90;;;;;;4978523;28;20026;-38
2021/05/01 00:28:38;;;;;;;17.55;14.35;;;8.70;99.90;;;;;;4966101;28;20027;-37
2021/05/01 00:31:04;;;;;;;18.08;14.23;;;8.70;99.90;;;;;;4976030;28;20117;-38
2021/05/01 00:33:29;;;;;;;20.20;15.27;;;8.70;99.90;;;;;;4967327;28;20500;-39
2021/05/01 00:35:55;;;;;;;19.70;15.75;;;8.70;99.90;;;;;;4973604;28;20525;-38
2021/05/01 00:38:21;;;;;;;19.27;16.27;;;8.60;99.90;;;;;;4970461;28;20039;-39
2021/05/01 00:40:46;;;;;;;26.95;19.65;;;8.60;99.90;;;;;;4970582;28;20022;-37
2021/05/01 00:43:12;;;;;;;29.42;22.75;;;8.60;99.90;;;;;;4973447;28;20050;-36
2021/05/01 00:45:37;;;;;;;25.02;19.58;;;8.50;99.90;;;;;;4967502;28;20023;-39
2021/05/01 00:48:03;;;;;;;24.35;17.52;;;8.40;99.90;;;;;;4975299;28;20035;-38
2021/05/01 00:50:29;;;;;;;25.33;17.50;;;8.40;99.90;;;;;;4967004;28;20114;-39
2021/05/01 00:52:54;;;;;;;22.13;17.17;;;8.40;99.90;;;;;;4975937;28;20042;-38
2021/05/01 00:55:20;;;;;;;23.33;17.95;;;8.40;99.90;;;;;;4967119;28;20062;-38
2021/05/01 00:57:46;;;;;;;22.55;17.40;;;8.40;99.90;;;;;;4976508;28;20094;-39
2021/05/01 01:00:29;;;;;;;21.88;16.73;;;8.40;99.90;;;;;;4965695;28;20026;-39
2021/05/01 01:02:58;;;;;;;21.75;16.42;;;8.30;99.90;;;;;;4977354;28;20026;-36
2021/05/01 01:05:25;;;;;;;19.42;15.57;;;8.30;99.90;;;;;;4984298;28;20057;-38
2021/05/01 01:07:53;;;;;;;20.63;16.65;;;8.30;99.90;;;;;;4980878;28;20113;-39
2021/05/01 01:10:19;;;;;;;20.40;17.27;;;8.20;99.90;;;;;;4970102;28;20031;-37
2021/05/01 01:12:45;;;;;;;18.50;15.48;;;8.20;99.90;;;;;;4980413;28;20073;-37
2021/05/01 01:15:21;;;;;;;19.90;15.88;;;8.20;99.90;;;;;;4970032;28;20026;-38
2021/05/01 01:17:46;;;;;;;19.35;15.50;;;8.20;99.90;;;;;;4980780;28;20070;-38
2021/05/01 01:20:13;;;;;;;24.02;16.90;;;8.10;99.90;;;;;;4969595;28;20062;-38
2021/05/01 01:22:38;;;;;;;20.27;16.17;;;8.10;99.90;;;;;;4978134;28;20034;-38
2021/05/01 01:25:04;;;;;;;18.23;15.00;;;8.10;99.90;;;;;;4972477;28;20549;-37
2021/05/01 01:27:30;;;;;;;21.85;16.42;;;8.10;99.90;;;;;;4975056;28;20043;-38
2021/05/01 01:29:56;;;;;;;23.77;17.42;;;8.00;99.90;;;;;;4974657;28;20031;-37
2021/05/01 01:32:21;;;;;;;18.80;15.18;;;8.00;99.90;;;;;;4972841;28;20049;-38
2021/05/01 01:34:47;;;;;;;19.55;15.45;;;8.00;99.90;;;;;;4976597;28;20089;-38
2021/05/01 01:37:12;;;;;;;20.15;15.30;;;8.00;99.90;;;;;;4970950;28;20031;-39
2021/05/01 01:39:38;;;;;;;19.77;14.90;;;7.90;99.90;;;;;;4979982;28;20058;-37
2021/05/01 01:42:04;;;;;;;20.90;14.35;;;7.90;99.90;;;;;;4969932;28;20030;-38
2021/05/01 01:44:29;;;;;;;18.55;13.95;;;7.90;99.90;;;;;;4979624;28;20045;-38
2021/05/01 01:46:55;;;;;;;22.95;15.55;;;7.90;99.90;;;;;;4968685;28;20023;-40
2021/05/01 01:49:21;;;;;;;16.05;13.38;;;7.90;99.90;;;;;;4980536;28;20378;-34
2021/05/01 01:51:47;;;;;;;15.07;12.45;;;7.90;99.90;;;;;;4968658;28;20066;-39
2021/05/01 01:54:12;;;;;;;16.67;13.70;;;7.90;99.90;;;;;;4981082;28;20034;-36
2021/05/01 01:56:38;;;;;;;17.33;12.80;;;7.90;99.90;;;;;;4968446;28;20027;-36
2021/05/01 01:59:07;;;;;;;18.45;12.82;;;7.80;99.90;;;;;;4978926;28;20868;-34
2021/05/01 02:01:33;;;;;;;20.65;13.50;;;7.80;99.90;;;;;;4969442;28;20168;-38
2021/05/01 02:03:59;;;;;;;17.00;11.93;;;7.80;99.90;;;;;;4976797;28;20053;-37
2021/05/01 02:06:25;;;;;;;14.65;11.77;;;7.80;99.90;;;;;;4984554;28;20026;-39
2021/05/01 02:08:51;;;;;;;15.77;11.63;;;7.80;99.90;;;;;;4981080;28;20058;-39
2021/05/01 02:11:17;;;;;;;12.75;11.10;;;7.80;99.90;;;;;;4981895;28;20049;-37
2021/05/01 02:13:42;;;;;;;16.23;11.52;;;7.80;99.90;;;;;;4982921;28;20119;-36
2021/05/01 02:16:08;;;;;;;12.70;11.38;;;7.80;99.90;;;;;;4978769;28;20737;-38
2021/05/01 02:18:34;;;;;;;13.55;10.85;;;7.90;99.90;;;;;;4985972;28;20026;-38
2021/05/01 02:21:00;;;;;;;19.30;11.82;;;7.90;99.90;;;;;;4968158;28;20126;-35
2021/05/01 02:23:28;;;;;;;13.75;11.02;;;7.90;99.90;;;;;;4969370;28;20482;-37
2021/05/01 02:25:54;;;;;;;16.00;11.80;;;7.90;99.90;;;;;;4976722;28;20104;-38
2021/05/01 02:28:19;;;;;;;13.35;10.77;;;7.80;99.90;;;;;;4987255;28;20214;-38
2021/05/01 02:30:46;;;;;;;16.77;12.20;;;7.80;99.90;;;;;;4975274;28;20022;-37
2021/05/01 02:33:12;;;;;;;17.70;11.38;;;7.70;99.90;;;;;;4987744;28;20034;-36
2021/05/01 02:35:39;;;;;;;14.07;11.25;;;7.70;99.90;;;;;;4974785;28;20029;-37
2021/05/01 02:38:05;;;;;;;16.23;11.60;;;7.60;99.90;;;;;;4987081;28;20089;-38
2021/05/01 02:40:32;;;;;;;15.20;11.73;;;7.60;99.90;;;;;;4975676;28;20063;-36
2021/05/01 02:43:01;;;;;;;12.55;11.15;;;7.50;99.90;;;;;;4986974;28;20477;-38
2021/05/01 02:45:27;;;;;;;14.90;10.82;;;7.40;99.90;;;;;;4976753;28;20039;-35
2021/05/01 02:47:52;;;;;;;14.70;10.70;;;7.40;99.90;;;;;;4984223;28;20037;-36
2021/05/01 02:50:19;;;;;;;14.35;11.02;;;7.30;99.90;;;;;;4980750;28;20027;-38
2021/05/01 02:52:45;;;;;;;14.80;11.15;;;7.20;99.90;;;;;;4981169;28;20461;-36
2021/05/01 02:55:11;;;;;;;13.90;10.52;;;7.20;99.90;;;;;;4982379;28;20075;-39
2021/05/01 02:57:37;;;;;;;14.07;11.05;;;7.10;99.90;;;;;;4979188;28;20057;-36
2021/05/01 03:00:09;;;;;;;13.60;10.90;;;7.10;99.90;;;;;;4984172;28;20108;-38
2021/05/01 03:02:34;;;;;;;15.57;11.50;;;7.10;99.90;;;;;;4977882;28;20030;-38
2021/05/01 03:05:00;;;;;;;13.45;10.25;;;7.00;99.90;;;;;;4985249;28;20033;-42
2021/05/01 03:07:26;;;;;;;14.60;10.45;;;7.00;99.90;;;;;;4976324;28;20138;-37
2021/05/01 03:09:52;;;;;;;13.55;10.25;;;6.90;99.90;;;;;;4984927;28;20465;-36
2021/05/01 03:12:18;;;;;;;13.32;10.30;;;6.90;99.90;;;;;;4975145;28;20046;-36
2021/05/01 03:14:44;;;;;;;15.52;11.13;;;6.90;99.90;;;;;;4986462;28;20474;-36
2021/05/01 03:17:11;;;;;;;12.80;9.43;;;6.80;99.90;;;;;;4974534;28;20541;-38
2021/05/01 03:19:37;;;;;;;17.58;10.27;;;6.80;99.90;;;;;;4974609;28;20035;-38
2021/05/01 03:22:02;;;;;;;13.27;9.35;;;6.80;99.90;;;;;;4981915;28;20096;-38
2021/05/01 03:24:29;;;;;;;12.40;10.35;;;6.70;99.90;;;;;;4985229;28;20101;-36
2021/05/01 03:26:54;;;;;;;15.60;11.00;;;6.70;99.90;;;;;;4975857;28;20061;-37
2021/05/01 03:29:20;;;;;;;14.43;11.10;;;6.60;99.90;;;;;;4984287;28;20433;-37
2021/05/01 03:31:45;;;;;;;17.95;11.05;;;6.60;99.90;;;;;;4978128;28;20031;-34
2021/05/01 03:34:11;;;;;;;12.40;10.55;;;6.60;99.90;;;;;;4981588;28;20026;-34
2021/05/01 03:36:36;;;;;;;15.23;10.55;;;6.60;99.90;;;;;;4980944;28;20022;-37
2021/05/01 03:39:02;;;;;;;15.75;10.85;;;6.60;99.90;;;;;;4978683;28;20062;-37
2021/05/01 03:41:28;;;;;;;12.65;11.18;;;6.50;99.90;;;;;;4983072;28;20049;-36
2021/05/01 03:43:53;;;;;;;11.75;10.55;;;6.50;99.90;;;;;;4976658;28;20162;-38
2021/05/01 03:46:19;;;;;;;14.30;10.55;;;6.50;99.90;;;;;;4984575;28;20452;-34
2021/05/01 03:48:44;;;;;;;14.52;11.38;;;6.40;99.90;;;;;;4973874;28;20037;-37
2021/05/01 03:51:10;;;;;;;14.65;12.10;;;6.50;99.90;;;;;;4985106;28;20026;-38
2021/05/01 03:53:35;;;;;;;17.27;12.48;;;6.40;99.90;;;;;;4974642;28;20601;-37
2021/05/01 03:56:01;;;;;;;13.73;11.35;;;6.40;99.90;;;;;;4985277;28;20018;-36
2021/05/01 03:58:30;;;;;;;13.35;10.90;;;6.30;99.90;;;;;;4973644;28;20143;-38
2021/05/01 04:00:55;;;;;;;13.82;11.55;;;6.30;99.90;;;;;;4985889;28;20026;-38
2021/05/01 04:03:21;;;;;;;15.70;11.98;;;6.30;99.90;;;;;;4973307;28;20094;-35
2021/05/01 04:05:46;;;;;;;15.18;13.38;;;6.30;99.90;;;;;;4979192;28;20026;-37
2021/05/01 04:08:12;;;;;;;18.25;13.52;;;6.30;99.90;;;;;;4975854;28;20116;-37
2021/05/01 04:10:38;;;;;;;17.80;13.57;;;6.20;99.90;;;;;;4968558;28;20042;-36
2021/05/01 04:13:03;;;;;;;16.05;13.90;;;6.30;99.90;;;;;;4972382;28;20046;-38
2021/05/01 04:15:29;;;;;;;19.13;13.98;;;6.20;99.90;;;;;;4971137;28;20321;-37
2021/05/01 04:17:55;;;;;;;17.10;14.00;;;6.20;99.90;;;;;;4970399;28;20097;-37
2021/05/01 04:20:20;;;;;;;16.73;13.73;;;6.20;99.90;;;;;;4973713;28;20027;-38
2021/05/01 04:22:47;;;;;;;15.57;13.07;;;6.20;99.90;;;;;;4967147;28;20026;-37
2021/05/01 04:25:12;;;;;;;15.82;13.48;;;6.10;99.90;;;;;;4976505;28;20050;-38
2021/05/01 04:27:39;;;;;;;15.52;12.85;;;6.10;99.90;;;;;;4967235;28;20014;-35
2021/05/01 04:30:06;;;;;;;17.27;13.20;;;6.10;99.90;;;;;;4976672;28;20029;-38
2021/05/01 04:32:33;;;;;;;17.48;13.45;;;6.00;99.90;;;;;;4966261;28;20113;-34
2021/05/01 04:34:58;;;;;;;16.60;13.90;;;6.10;99.90;;;;;;4976843;28;20597;-36
2021/05/01 04:37:24;;;;;;;16.83;13.98;;;6.00;99.90;;;;;;4965452;28;20046;-36
2021/05/01 04:39:49;;;;;;;16.15;13.65;;;6.10;99.90;;;;;;4977352;28;20367;-38
2021/05/01 04:42:15;;;;;;;22.27;15.27;;;6.10;99.90;;;;;;4966414;28;20061;-35
2021/05/01 04:44:41;;;;;;;16.58;13.30;;;6.10;99.90;;;;;;4976825;28;20393;-36
2021/05/01 04:47:06;;;;;;;16.60;13.15;;;6.10;99.90;;;;;;4966140;28;20062;-38
2021/05/01 04:49:32;;;;;;;16.83;13.38;;;6.10;99.90;;;;;;4974159;28;20100;-37
2021/05/01 04:51:59;;;;;;;17.65;13.48;;;6.10;99.90;;;;;;4968587;28;20463;-37
2021/05/01 04:54:25;;;;;;;17.83;14.13;;;6.10;99.90;;;;;;4972262;28;20037;-35
2021/05/01 04:56:50;;;;;;;17.05;13.18;;;6.10;99.90;;;;;;4970736;28;20031;-35
2021/05/01 04:59:16;;;;;;;14.70;13.10;;;6.10;99.90;;;;;;4969702;28;20023;-36
2021/05/01 05:01:41;;;;;;;15.82;12.98;;;6.10;99.90;;;;;;4973253;28;20023;-38
2021/05/01 05:04:07;;;;;;;18.70;14.05;;;6.10;99.90;;;;;;4966541;28;20034;-38
2021/05/01 05:06:32;;;;;;;16.92;12.50;;;6.10;99.90;;;;;;4973424;28;20070;-37
2021/05/01 05:09:00;;;;;;;14.07;12.18;;;6.10;99.90;;;;;;4966959;28;20026;-35
2021/05/01 05:11:25;;;;;;;15.65;12.88;;;6.10;99.90;;;;;;4976517;28;20053;-37
2021/05/01 05:13:51;;;;;;;15.27;12.20;;;6.10;99.90;;;;;;4964732;28;20051;-37
2021/05/01 05:16:16;;;;;;;14.02;12.10;;;6.10;99.90;;;;;;4977413;28;20057;-38
2021/05/01 05:18:42;;;;;;;17.83;12.13;;;6.10;99.90;;;;;;4964902;28;20117;-38
2021/05/01 05:21:07;;;;;;;16.77;13.93;;;6.10;99.90;;;;;;4977345;28;20105;-36
2021/05/01 05:23:33;;;;;;;19.63;14.32;;;6.10;99.90;;;;;;4965436;28;20023;-36
2021/05/01 05:25:58;;;;;;;18.25;13.02;;;6.10;99.90;;;;;;4975645;28;20422;-38
2021/05/01 05:28:24;;;;;;;18.45;13.38;;;6.20;99.90;;;;;;4967259;28;20015;-37
2021/05/01 05:30:49;;;;;;;17.80;14.43;;;6.20;99.90;;;;;;4973224;28;20323;-37
2021/05/01 05:33:15;;;;;;;17.70;13.93;;;6.20;99.90;;;;;;4968330;28;20066;-35
2021/05/01 05:35:40;;;;;;;16.27;13.82;;;6.30;99.90;;;;;;4970992;28;20374;-37
2021/05/01 05:38:06;;;;;;;18.40;14.30;;;6.30;99.90;;;;;;4971365;28;20262;-37
2021/05/01 05:40:33;;;;;;;17.60;13.85;;;6.30;99.90;;;;;;4967871;28;20129;-37
2021/05/01 05:42:59;;;;;;;17.63;14.10;;;6.40;99.90;;;;;;4974536;28;20061;-38
2021/05/01 05:45:30;;;;;;;15.95;12.43;;;6.40;99.90;;;;;;4966552;28;20031;-39
2021/05/01 05:47:56;;;;;;;16.50;13.68;;;6.40;99.90;;;;;;4975299;28;20060;-38
2021/05/01 05:50:22;;;;;;;21.65;15.52;;;6.50;99.90;;;;;;4987147;28;20050;-36
2021/05/01 05:52:48;;;;;;;18.25;14.70;;;6.50;99.90;;;;;;4976812;28;20084;-41
2021/05/01 05:55:14;;;;;;;18.70;15.60;;;6.50;99.90;;;;;;4988152;28;20023;-38
2021/05/01 05:57:46;;;;;;;19.52;15.48;;;6.50;99.90;;;;;;4983258;28;20035;-39
2021/05/01 06:00:12;;;;;;;23.65;16.92;;;6.50;99.90;;;;;;4968557;28;20076;-37
2021/05/01 06:02:42;;;;;;;23.13;17.33;;;6.60;99.90;;;;;;4979812;28;20121;-37
2021/05/01 06:05:32;;;;;;;23.55;18.95;;;6.60;99.90;;;;;;4968686;28;20474;-36
2021/05/01 06:08:05;;;;;;;27.75;19.30;;;6.60;99.90;;;;;;4980132;28;20102;-38
2021/05/01 06:10:30;;;;;;;;;;;6.70;99.90;;;;;;4969217;28;20126;-35
2021/05/01 06:12:56;;;;;;;28.13;20.70;;;6.70;99.90;;;;;;4979805;28;20012;-38
2021/05/01 06:15:25;;;;;;;30.92;22.48;;;6.70;99.90;;;;;;4967859;28;20039;-37
2021/05/01 06:17:53;;;;;;;29.17;22.02;;;6.70;99.90;;;;;;4979768;28;20105;-39
2021/05/01 06:20:19;;;;;;;27.40;20.77;;;6.80;99.90;;;;;;4968388;28;20750;-38
2021/05/01 06:22:48;;;;;;;27.08;19.55;;;6.80;99.90;;;;;;4977241;28;20117;-38
2021/05/01 06:25:14;;;;;;;24.02;19.65;;;6.90;99.90;;;;;;4970197;28;20361;-39
2021/05/01 06:27:39;;;;;;;25.05;20.48;;;6.90;99.90;;;;;;4974936;28;20030;-37
2021/05/01 06:30:07;;;;;;;29.23;22.38;;;7.00;99.90;;;;;;4971995;28;20106;-36
2021/05/01 06:32:33;;;;;;;30.15;22.45;;;7.00;99.90;;;;;;4973147;28;20069;-35
2021/05/01 06:35:00;;;;;;;24.50;20.25;;;7.10;99.90;;;;;;4974909;28;20042;-36
2021/05/01 06:37:26;;;;;;;24.70;18.90;;;7.10;99.90;;;;;;4970550;28;20046;-37
2021/05/01 06:39:55;;;;;;;23.67;18.60;;;7.20;99.90;;;;;;4975649;28;20026;-38
2021/05/01 06:42:25;;;;;;;21.48;17.67;;;7.40;99.90;;;;;;4969602;28;20335;-37
2021/05/01 06:44:54;;;;;;;25.00;18.20;;;7.50;99.90;;;;;;4966776;28;20042;-38
2021/05/01 06:47:28;;;;;;;21.27;17.38;;;7.60;99.90;;;;;;4970137;28;20105;-39
2021/05/01 06:50:11;;;;;;;21.58;16.17;;;7.60;99.90;;;;;;4976376;28;20132;-39
2021/05/01 06:52:43;;;;;;;23.67;15.55;;;7.80;99.90;;;;;;4985099;28;20047;-36
2021/05/01 06:55:10;;;;;;;21.00;15.18;;;7.80;99.90;;;;;;4967434;28;20122;-42
2021/05/01 06:57:37;;;;;;;17.98;13.82;;;7.90;99.90;;;;;;4969067;28;20030;-37
2021/05/01 07:00:08;;;;;;;18.80;14.35;;;7.90;99.90;;;;;;4974724;28;20069;-39
2021/05/01 07:02:42;;;;;;;17.13;14.38;;;7.90;99.90;;;;;;4985783;28;20573;-37
2021/05/01 07:05:09;;;;;;;16.02;12.80;;;8.00;99.90;;;;;;4980626;28;20062;-38
2021/05/01 07:07:35;;;;;;;16.63;12.50;;;8.00;99.90;;;;;;4983502;28;20529;-37
2021/05/01 07:10:04;;;;;;;16.35;11.98;;;8.10;99.90;;;;;;4979457;28;20125;-39
2021/05/01 07:12:30;;;;;;;17.08;11.90;;;8.20;99.90;;;;;;4966618;28;20129;-39
2021/05/01 07:14:58;;;;;;;11.85;10.50;;;8.30;99.90;;;;;;4978770;28;20129;-39
2021/05/01 07:17:24;;;;;;;12.90;10.43;;;8.30;99.90;;;;;;4967518;28;20031;-36
2021/05/01 07:19:52;;;;;;;16.25;10.55;;;8.30;99.90;;;;;;4976297;28;20088;-39
2021/05/01 07:22:17;;;;;;;15.93;10.90;;;8.40;99.90;;;;;;4981395;28;20058;-38
2021/05/01 07:24:43;;;;;;;17.20;12.10;;;8.50;99.90;;;;;;4975959;28;20402;-39
2021/05/01 07:27:11;;;;;;;17.05;12.43;;;8.50;99.90;;;;;;4981832;28;20769;-39
2021/05/01 07:29:40;;;;;;;15.07;11.38;;;8.60;99.90;;;;;;4978564;28;20054;-38
2021/05/01 07:32:08;;;;;;;16.00;11.35;;;8.80;99.90;;;;;;4980064;28;20457;-35
2021/05/01 07:34:35;;;;;;;16.15;11.63;;;8.90;99.90;;;;;;4979769;28;20438;-39
2021/05/01 07:37:09;;;;;;;14.38;10.43;;;9.10;99.90;;;;;;4978594;28;20339;-37
2021/05/01 07:39:35;;;;;;;15.15;11.45;;;9.10;99.90;;;;;;4981132;28;20126;-39
2021/05/01 07:42:05;;;;;;;13.60;9.57;;;9.20;99.60;;;;;;4976903;28;20038;-37
2021/05/01 07:44:32;;;;;;;11.27;9.30;;;9.20;99.60;;;;;;4982793;28;20064;-39
2021/05/01 07:46:59;;;;;;;18.60;9.63;;;9.20;99.60;;;;;;4974705;28;20690;-37
2021/05/01 07:49:26;;;;;;;11.95;9.25;;;9.30;99.70;;;;;;4982641;28;20106;-37
2021/05/01 07:51:51;;;;;;;12.63;8.57;;;9.40;99.40;;;;;;4972986;28;20691;-38
2021/05/01 07:54:17;;;;;;;11.70;9.45;;;9.60;99.30;;;;;;4984362;28;20264;-38
2021/05/01 07:56:42;;;;;;;11.90;9.23;;;9.70;98.90;;;;;;4977121;28;20065;-38
2021/05/01 07:59:08;;;;;;;10.20;8.63;;;9.70;98.60;;;;;;4965582;28;20435;-38
2021/05/01 08:01:34;;;;;;;14.57;8.38;;;9.60;98.40;;;;;;4977239;28;20129;-38
2021/05/01 08:04:00;;;;;;;13.10;8.80;;;9.50;98.40;;;;;;4965270;28;20031;-38
2021/05/01 08:06:27;;;;;;;9.63;8.60;;;9.30;98.50;;;;;;4968678;28;20161;-35
2021/05/01 08:08:53;;;;;;;13.23;8.63;;;9.20;98.50;;;;;;4965371;28;20023;-38
2021/05/01 08:11:19;;;;;;;10.90;8.35;;;9.10;98.00;;;;;;4971221;28;20343;-37
2021/05/01 08:13:44;;;;;;;15.10;8.48;;;9.00;98.30;;;;;;4980675;28;20062;-34
2021/05/01 08:16:10;;;;;;;10.95;7.20;;;9.00;98.50;;;;;;4977410;28;20023;-37
2021/05/01 08:18:39;;;;;;;10.13;7.70;;;9.00;98.60;;;;;;4983759;28;20775;-39
2021/05/01 08:21:04;;;;;;;10.65;8.20;;;9.00;98.40;;;;;;4981198;28;20019;-38
2021/05/01 08:23:33;;;;;;;11.23;7.78;;;9.20;98.30;;;;;;4977546;28;20370;-38
2021/05/01 08:26:00;;;;;;;12.07;7.72;;;9.40;98.10;;;;;;4982318;28;20023;-38
2021/05/01 08:28:25;;;;;;;11.75;7.32;;;9.70;97.80;;;;;;4976071;28;20034;-34
2021/05/01 08:30:51;;;;;;;10.30;7.10;;;9.80;97.50;;;;;;4981710;28;20024;-39
2021/05/01 08:33:17;;;;;;;8.48;6.22;;;9.90;97.00;;;;;;4977087;28;20043;-38
2021/05/01 08:35:42;;;;;;;9.75;7.10;;;10.00;96.50;;;;;;4966746;28;20332;-35
2021/05/01 08:38:11;;;;;;;9.90;6.43;;;10.00;96.30;;;;;;4979446;28;20191;-38
2021/05/01 08:40:37;;;;;;;9.23;6.60;;;10.00;96.50;;;;;;4983732;28;20035;-36
2021/05/01 08:43:03;;;;;;;7.15;6.32;;;10.10;96.30;;;;;;4980740;28;20477;-39
2021/05/01 08:45:31;;;;;;;8.43;6.28;;;10.20;96.10;;;;;;4983584;28;20130;-38
2021/05/01 08:48:00;;;;;;;11.23;6.20;;;10.30;95.90;;;;;;4979871;28;20027;-37
2021/05/01 08:50:26;;;;;;;9.77;5.75;;;10.50;95.70;;;;;;4982943;28;20030;-39
2021/05/01 08:52:55;;;;;;;7.20;6.03;;;10.70;95.50;;;;;;4981742;28;20485;-39
2021/05/01 08:55:22;;;;;;;7.50;6.00;;;10.90;95.00;;;;;;4984168;28;20137;-38
2021/05/01 08:57:47;;;;;;;8.32;6.32;;;11.00;94.30;;;;;;4975570;28;20137;-37
2021/05/01 09:00:14;;;;;;;7.95;5.70;;;11.00;93.70;;;;;;4982603;28;20169;-37
2021/05/01 09:02:40;;;;;;;6.80;6.03;;;11.00;94.00;;;;;;4978533;28;20037;-34
2021/05/01 09:05:08;;;;;;;9.25;5.70;;;11.20;94.20;;;;;;4978785;28;20056;-39
2021/05/01 09:07:36;;;;;;;7.75;5.82;;;11.30;93.30;;;;;;4980604;28;20074;-38
2021/05/01 09:10:04;;;;;;;8.30;5.45;;;11.40;93.20;;;;;;4977298;28;20112;-38
2021/05/01 09:12:47;;;;;;;8.07;4.95;;;11.40;92.90;;;;;;4973204;28;20042;-39
2021/05/01 09:15:22;;;;;;;6.95;5.22;;;11.40;93.10;;;;;;4972745;28;20050;-35
2021/05/01 09:17:58;;;;;;;6.50;4.72;;;11.30;92.80;;;;;;4967445;28;20103;-38
2021/05/01 09:20:24;;;;;;;6.55;4.57;;;11.40;92.80;;;;;;4972980;28;20054;-38
2021/05/01 09:23:05;;;;;;;9.00;5.10;;;11.40;92.70;;;;;;4979898;28;20022;-38
2021/05/01 09:25:45;;;;;;;6.75;4.45;;;11.40;92.10;;;;;;4983302;28;20022;-35
2021/05/01 09:28:13;;;;;;;6.00;4.40;;;11.50;92.40;;;;;;4985009;28;20124;-38
2021/05/01 09:30:42;;;;;;;10.13;5.60;;;11.60;92.10;;;;;;4985181;28;20516;-38
2021/05/01 09:33:40;;;;;;;9.32;5.88;;;11.60;89.00;;;;;;4986234;28;20041;-37
2021/05/01 09:36:10;;;;;;;7.63;5.10;;;11.40;88.60;;;;;;4974699;28;20042;-39
2021/05/01 09:38:47;;;;;;;5.72;4.72;;;11.20;89.90;;;;;;4984239;28;20109;-36
2021/05/01 09:41:24;;;;;;;8.35;4.40;;;11.00;90.80;;;;;;4974868;28;20023;-37
2021/05/01 09:43:58;;;;;;;5.25;4.50;;;10.90;91.30;;;;;;4973073;28;20030;-38
2021/05/01 09:46:25;;;;;;;5.22;4.68;;;10.70;91.60;;;;;;4975661;28;20133;-38
2021/05/01 09:49:16;;;;;;;7.40;5.90;;;10.60;91.40;;;;;;4971056;28;20015;-37
2021/05/01 09:51:48;;;;;;;7.60;5.60;;;10.50;90.80;;;;;;4976639;28;20027;-37
2021/05/01 09:54:16;;;;;;;5.07;4.57;;;10.50;91.40;;;;;;4983017;28;20031;-37
2021/05/01 09:56:44;;;;;;;6.95;4.88;;;10.50;91.70;;;;;;4974452;28;20026;-37
2021/05/01 09:59:10;;;;;;;7.80;4.40;;;10.70;91.90;;;;;;4971803;28;20034;-36
2021/05/01 10:01:37;;;;;;;9.05;4.70;;;10.90;91.80;;;;;;4977659;28;20394;-38
2021/05/01 10:04:14;;;;;;;6.20;4.47;;;11.10;91.70;;;;;;4969792;28;20407;-35
2021/05/01 10:06:53;;;;;;;8.48;4.22;;;11.30;91.50;;;;;;4977673;28;20062;-38
2021/05/01 10:09:27;;;;;;;6.72;5.15;;;11.60;91.40;;;;;;4986255;28;20103;-38
2021/05/01 10:12:01;;;;;;;6.70;4.93;;;11.80;91.10;;;;;;4978413;28;20113;-41
2021/05/01 10:14:44;;;;;;;5.93;4.25;;;11.90;90.90;;;;;;4985986;28;20047;-37
2021/05/01 10:17:11;;;;;;;;;;;12.00;90.20;;;;;;4979979;28;20030;-38
2021/05/01 10:19:43;;;;;;;6.80;4.22;;;11.80;90.10;;;;;;4981530;28;19916;-39
2021/05/01 10:22:39;;;;;;;4.63;3.72;;;11.70;90.00;;;;;;4976893;28;20027;-38
2021/05/01 10:25:17;;;;;;;6.65;4.07;;;11.50;89.40;;;;;;4983125;28;20490;-39
2021/05/01 10:27:52;;;;;;;5.20;4.07;;;11.40;89.20;;;;;;4974941;28;20030;-38
2021/05/01 10:30:39;;;;;;;6.30;4.07;;;11.30;89.40;;;;;;4983066;28;20116;-39
2021/05/01 10:36:08;;;;;;;9.07;4.30;;;11.10;88.00;;;;;;4973566;28;20061;-40
2021/05/01 10:38:35;;;;;;;5.70;4.20;;;10.90;89.60;;;;;;4971251;28;20049;-35
2021/05/01 10:41:03;;;;;;;4.90;4.40;;;10.90;89.80;;;;;;4974385;28;20073;-39
2021/05/01 10:43:31;;;;;;;6.35;4.43;;;10.80;88.80;;;;;;4971983;28;20038;-38
2021/05/01 10:46:05;;;;;;;6.50;4.43;;;10.80;89.80;;;;;;4972337;28;20030;-35
2021/05/01 10:48:33;;;;;;;6.10;4.25;;;10.80;88.80;;;;;;4973886;28;20035;-36
2021/05/01 10:51:09;;;;;;;6.63;4.32;;;10.80;88.30;;;;;;4971010;28;20030;-39
2021/05/01 10:53:36;;;;;;;7.40;4.05;;;10.80;89.10;;;;;;4974667;28;20043;-39
2021/05/01 10:56:03;;;;;;;5.88;4.15;;;10.80;88.10;;;;;;4969618;28;20025;-39
2021/05/01 10:58:40;;;;;;;4.90;3.53;;;10.90;86.60;;;;;;4976371;28;20030;-40
2021/05/01 11:01:11;;;;;;;3.90;3.40;;;11.00;87.00;;;;;;4967846;28;20491;-40
2021/05/01 11:03:50;;;;;;;6.55;3.10;;;11.20;87.70;;;;;;4976780;28;20051;-34
2021/05/01 11:06:21;;;;;;;4.75;3.17;;;11.40;87.80;;;;;;4969535;28;20033;-39
2021/05/01 11:09:08;;;;;;;7.05;3.28;;;11.50;87.50;;;;;;4975331;28;20026;-39
2021/05/01 11:11:37;;;;;;;3.75;3.35;;;11.70;85.70;;;;;;4969514;28;20119;-37
2021/05/01 11:14:24;;;;;;;4.47;3.22;;;11.90;84.50;;;;;;4975825;28;20113;-39
2021/05/01 11:16:52;;;;;;;4.05;3.38;;;12.00;85.00;;;;;;4970681;28;20189;-38
2021/05/01 11:19:21;;;;;;;6.20;3.30;;;12.20;84.20;;;;;;4973888;28;20128;-39
2021/05/01 11:21:47;;;;;;;4.07;3.10;;;12.40;84.00;;;;;;4968531;28;20026;-39
2021/05/01 11:24:15;;;;;;;4.30;3.15;;;12.50;83.50;;;;;;4977559;28;20029;-39
2021/05/01 11:26:46;;;;;;;4.63;3.75;;;12.60;82.70;;;;;;4967491;28;20049;-38
2021/05/01 11:29:13;;;;;;;8.25;4.18;;;12.70;82.20;;;;;;4978000;28;20153;-38
2021/05/01 11:31:44;;;;;;;5.47;3.60;;;12.70;80.10;;;;;;4967461;28;20031;-38
2021/05/01 11:34:15;;;;;;;5.05;3.33;;;12.60;80.50;;;;;;4978172;28;20213;-37
2021/05/01 11:37:06;;;;;;;6.05;3.70;;;12.50;81.40;;;;;;4985983;28;20096;-37
2021/05/01 11:39:37;;;;;;;3.80;3.45;;;12.40;80.50;;;;;;4965079;28;20042;-37
2021/05/01 11:42:03;;;;;;;5.38;3.97;;;12.40;81.80;;;;;;4967949;28;20027;-38
2021/05/01 11:44:29;;;;;;;5.50;3.10;;;12.30;82.10;;;;;;4976785;28;20078;-36
2021/05/01 11:47:08;;;;;;;3.67;3.17;;;12.30;81.30;;;;;;4965966;28;20034;-38
2021/05/01 11:49:34;;;;;;;4.22;2.80;;;12.10;81.50;;;;;;4966626;28;20026;-37
2021/05/01 11:52:49;;;;;;;5.13;3.30;;;12.00;82.10;;;;;;4966381;28;20048;-38
2021/05/01 11:55:20;;;;;;;3.65;2.88;;;11.90;80.80;;;;;;4975987;28;20058;-37
2021/05/01 11:57:48;;;;;;;4.07;3.05;;;11.80;78.80;;;;;;4984523;28;20065;-38
2021/05/01 12:00:28;;;;;;;6.57;3.15;;;11.70;78.10;;;;;;4974549;28;20668;-41
2021/05/01 12:02:59;;;;;;;6.72;3.50;;;11.70;78.90;;;;;;4984034;28;20408;-35
2021/05/01 12:05:29;;;;;;;5.55;3.20;;;11.70;76.40;;;;;;4975142;28;20061;-38
2021/05/01 12:08:10;;;;;;;4.18;3.25;;;11.80;78.60;;;;;;4968550;28;20161;-38
2021/05/01 12:10:38;;;;;;;3.20;2.90;;;12.00;79.30;;;;;;4976710;28;20382;-37
2021/05/01 12:13:07;;;;;;;4.10;2.90;;;12.20;79.50;;;;;;4971915;28;20077;-36
2021/05/01 12:15:36;;;;;;;3.20;2.40;;;12.40;79.10;;;;;;4977589;28;20026;-34
2021/05/01 12:18:03;;;;;;;3.33;2.55;;;12.50;79.30;;;;;;4984904;28;20040;-36
2021/05/01 12:20:30;;;;;;;2.58;2.25;;;12.70;79.60;;;;;;4977750;28;20022;-38
2021/05/01 12:23:05;;;;;;;4.60;2.58;;;12.90;79.40;;;;;;4965725;28;20200;-38
2021/05/01 12:25:38;;;;;;;3.35;2.72;;;13.20;79.80;;;;;;4977603;28;20500;-38
2021/05/01 12:28:04;;;;;;;;;;;13.40;79.30;;;;;;4965922;28;20050;-41
2021/05/01 12:30:39;;;;;;;6.57;3.35;;;13.40;79.40;;;;;;4978689;28;19914;-39
2021/05/01 12:33:44;;;;;;;6.13;3.72;;;13.50;79.60;;;;;;4983304;28;20042;-38
2021/05/01 12:36:11;;;;;;;8.02;4.03;;;13.40;78.90;;;;;;4984068;28;20508;-39
2021/05/01 12:38:43;;;;;;;4.45;3.70;;;13.30;79.30;;;;;;4985458;28;20430;-38
2021/05/01 12:41:08;;;;;;;4.97;4.10;;;13.10;79.60;;;;;;4969705;28;20462;-39
2021/05/01 12:43:34;;;;;;;6.32;4.38;;;13.00;79.50;;;;;;4984933;28;20037;-39
2021/05/01 12:46:01;;;;;;;4.20;3.60;;;12.90;80.30;;;;;;4972580;28;20114;-38
2021/05/01 12:49:03;;;;;;;6.60;3.97;;;12.90;81.00;;;;;;4984853;28;20034;-39
2021/05/01 12:51:34;;;;;;;4.10;3.65;;;12.80;80.70;;;;;;4956538;28;20040;-38